Time;durP1;ratioP1;P1;durP2;ratioP2;P2;SDS_P1;SDS_P2;PMS_P1;PMS_P2;Temp;Humidity;BMP_temperature;BMP_pressure;BME280_temperature;BME280_humidity;BME280_pressure;Samples;Min_cycle;Max_cycle;Signal;HPM_P1;HPM_P2
2021/09/07 00:00:50;;;;;;;27.35;15.55;;;;;;;17.02;73.61;102126.59;5038734;28;20075;-76
2021/09/07 00:03:17;;;;;;;30.00;15.15;;;;;;;17.02;74.15;102130.09;5034796;28;20056;-77
2021/09/07 00:05:44;;;;;;;30.42;15.07;;;;;;;17.03;74.29;102117.56;5036980;28;20065;-76
2021/09/07 00:08:10;;;;;;;28.40;15.88;;;;;;;17.05;74.05;102116.38;5038275;28;20464;-76
2021/09/07 00:10:37;;;;;;;26.05;15.25;;;;;;;17.02;74.52;102121.22;5054378;28;20041;-76
2021/09/07 00:13:04;;;;;;;29.73;15.18;;;;;;;16.99;73.80;102127.75;5037425;28;20052;-77
2021/09/07 00:15:35;;;;;;;27.63;14.88;;;;;;;17.04;74.41;102127.25;5038248;28;20044;-77
2021/09/07 00:18:03;;;;;;;28.25;15.55;;;;;;;17.04;74.50;102128.09;5055510;28;20132;-77
2021/09/07 00:20:30;;;;;;;29.83;15.57;;;;;;;16.98;75.11;102119.88;5056084;28;20065;-77
2021/09/07 00:22:57;;;;;;;27.50;15.30;;;;;;;16.99;73.71;102121.53;5056002;28;20049;-77
2021/09/07 00:25:25;;;;;;;26.60;14.85;;;;;;;16.98;74.04;102118.03;5005971;28;20480;-77
2021/09/07 00:27:52;;;;;;;31.17;15.20;;;;;;;17.04;74.82;102114.69;5020949;28;20081;-76
2021/09/07 00:30:19;;;;;;;25.75;14.98;;;;;;;16.98;74.96;102119.88;5005114;28;20120;-77
2021/09/07 00:32:46;;;;;;;28.27;15.23;;;;;;;16.84;74.30;102113.28;5067017;28;20109;-76
2021/09/07 00:35:12;;;;;;;27.75;15.38;;;;;;;16.82;74.18;102105.38;5056307;28;20113;-77
2021/09/07 00:37:41;;;;;;;33.17;15.32;;;;;;;16.87;74.09;102110.28;5075602;28;20058;-76
2021/09/07 00:40:09;;;;;;;29.25;15.95;;;;;;;16.84;73.76;102110.63;5075472;28;20053;-76
2021/09/07 00:42:37;;;;;;;31.77;16.15;;;;;;;16.79;73.83;102107.53;5057513;28;20079;-76
2021/09/07 00:45:06;;;;;;;32.17;15.88;;;;;;;16.77;74.11;102107.72;5074989;28;20114;-77
2021/09/07 00:47:34;;;;;;;29.45;15.00;;;;;;;16.78;74.97;102116.59;5057929;28;20050;-77
2021/09/07 00:50:01;;;;;;;30.45;15.82;;;;;;;16.76;75.60;102118.59;5057709;28;20109;-76
2021/09/07 00:52:28;;;;;;;26.60;15.63;;;;;;;16.76;75.43;102119.44;5075265;28;20041;-76
2021/09/07 00:54:56;;;;;;;37.05;16.45;;;;;;;16.73;75.46;102113.56;5075356;28;20044;-77
2021/09/07 00:57:24;;;;;;;35.60;17.13;;;;;;;16.72;74.68;102104.69;5074545;28;20041;-77
2021/09/07 00:59:53;;;;;;;31.75;15.23;;;;;;;16.73;74.25;102110.88;5040782;28;20051;-76
2021/09/07 01:02:20;;;;;;;35.33;17.05;;;;;;;16.69;72.66;102108.50;5075409;28;20524;-76
2021/09/07 01:04:48;;;;;;;31.75;16.88;;;;;;;16.72;72.91;102115.41;5038977;28;20063;-76
2021/09/07 01:07:17;;;;;;;33.22;16.27;;;;;;;16.70;72.78;102114.72;5074679;28;20048;-75
2021/09/07 01:09:45;;;;;;;33.13;16.70;;;;;;;16.68;73.03;102100.63;5074906;28;20489;-76
2021/09/07 01:12:13;;;;;;;34.03;16.88;;;;;;;16.68;73.31;102101.50;5057341;28;20447;-77
2021/09/07 01:14:41;;;;;;;40.05;16.88;;;;;;;16.67;73.27;102098.97;5074921;28;20044;-77
2021/09/07 01:17:11;;;;;;;32.90;16.35;;;;;;;16.66;73.13;102103.50;5056958;28;20036;-77
2021/09/07 01:19:38;;;;;;;36.13;16.52;;;;;;;16.66;73.00;102097.28;5074920;28;20041;-77
2021/09/07 01:22:05;;;;;;;29.20;15.80;;;;;;;16.69;72.45;102094.28;5075278;28;20495;-77
2021/09/07 01:24:33;;;;;;;36.92;16.83;;;;;;;16.67;72.59;102089.09;5056799;28;20093;-76
2021/09/07 01:27:05;;;;;;;30.73;16.17;;;;;;;16.64;73.54;102092.06;5074552;28;20127;-77
2021/09/07 01:29:34;;;;;;;37.95;16.92;;;;;;;16.61;73.72;102097.78;5074428;28;20040;-76
2021/09/07 01:32:02;;;;;;;30.70;16.13;;;;;;;16.62;73.62;102086.03;5056425;28;20470;-77
2021/09/07 01:34:29;;;;;;;39.38;16.77;;;;;;;16.56;74.05;102089.38;5040137;28;20038;-77
2021/09/07 01:36:57;;;;;;;33.88;17.98;;;;;;;16.57;74.15;102083.03;5056086;28;20047;-76
2021/09/07 01:39:25;;;;;;;28.73;17.63;;;;;;;16.54;73.86;102078.00;5074600;28;20048;-77
2021/09/07 01:41:52;;;;;;;35.33;16.25;;;;;;;16.50;73.92;102079.31;5072795;28;20067;-76
2021/09/07 01:44:20;;;;;;;38.08;17.52;;;;;;;16.48;73.35;102076.78;5074222;28;20119;-77
2021/09/07 01:46:47;;;;;;;34.47;17.30;;;;;;;16.56;73.16;102083.19;5040067;28;20432;-77
2021/09/07 01:49:15;;;;;;;37.60;18.00;;;;;;;16.52;73.56;102085.34;5057282;28;20435;-77
2021/09/07 01:51:44;;;;;;;31.15;16.65;;;;;;;16.46;73.56;102078.81;5061702;28;20072;-77
2021/09/07 01:54:11;;;;;;;33.35;16.67;;;;;;;16.48;73.69;102084.84;5057413;28;20086;-76
2021/09/07 01:56:40;;;;;;;32.63;16.35;;;;;;;16.48;73.66;102089.31;5056247;28;20048;-77
2021/09/07 01:59:09;;;;;;;32.47;17.20;;;;;;;16.42;73.65;102079.28;5056334;28;20072;-76
2021/09/07 02:01:36;;;;;;;35.72;16.20;;;;;;;16.36;73.78;102079.91;5056292;28;20143;-76
2021/09/07 02:04:05;;;;;;;33.42;17.23;;;;;;;16.36;73.29;102080.75;5070481;28;20550;-76
2021/09/07 02:06:32;;;;;;;35.65;17.30;;;;;;;16.39;73.22;102076.91;5072849;28;20041;-76
2021/09/07 02:09:01;;;;;;;30.63;17.70;;;;;;;16.38;73.45;102072.56;5072943;28;20447;-76
2021/09/07 02:11:27;;;;;;;35.03;17.02;;;;;;;16.36;73.56;102072.72;5038965;28;20041;-76
2021/09/07 02:13:54;;;;;;;35.17;16.77;;;;;;;16.34;73.30;102072.03;5071691;28;20566;-76
2021/09/07 02:16:21;;;;;;;32.22;17.15;;;;;;;16.34;73.35;102073.88;5055282;28;20037;-77
2021/09/07 02:18:49;;;;;;;35.83;17.67;;;;;;;16.28;73.16;102075.34;5055385;28;20433;-76
2021/09/07 02:21:15;;;;;;;34.40;17.38;;;;;;;16.22;72.94;102079.50;5056200;28;20068;-76
2021/09/07 02:23:43;;;;;;;32.35;16.17;;;;;;;16.26;73.20;102077.34;5073426;28;20052;-76
2021/09/07 02:26:11;;;;;;;35.70;17.08;;;;;;;16.26;73.27;102080.88;5056014;28;20044;-77
2021/09/07 02:28:37;;;;;;;34.90;17.13;;;;;;;16.26;73.17;102077.34;5073182;28;20486;-77
2021/09/07 02:31:04;;;;;;;30.17;16.08;;;;;;;16.19;73.84;102078.97;5055224;28;20135;-76
2021/09/07 02:33:33;;;;;;;30.70;17.52;;;;;;;16.19;74.30;102078.97;5073034;28;20118;-76
2021/09/07 02:35:59;;;;;;;30.48;16.92;;;;;;;16.12;74.84;102081.47;5073230;28;20131;-77
2021/09/07 02:38:30;;;;;;;30.45;16.73;;;;;;;16.16;74.27;102076.63;5054162;28;20045;-76
2021/09/07 02:40:58;;;;;;;31.23;16.65;;;;;;;16.12;74.61;102079.63;5073211;28;20041;-77
2021/09/07 02:43:27;;;;;;;27.27;16.08;;;;;;;16.11;75.05;102077.09;5072872;28;20047;-76
2021/09/07 02:45:54;;;;;;;31.65;16.95;;;;;;;16.07;74.19;102073.88;5055329;28;20036;-76
2021/09/07 02:48:21;;;;;;;31.65;16.60;;;;;;;16.06;73.88;102074.91;5055339;28;20090;-76
2021/09/07 02:50:49;;;;;;;30.02;16.35;;;;;;;16.09;74.35;102073.75;5073074;28;20059;-75
2021/09/07 02:53:16;;;;;;;37.10;17.27;;;;;;;16.09;74.65;102071.06;5055172;28;20128;-76
2021/09/07 02:55:44;;;;;;;35.30;16.73;;;;;;;16.04;74.42;102070.69;5055095;28;20124;-76
2021/09/07 02:58:11;;;;;;;32.85;17.40;;;;;;;15.98;74.18;102072.16;5037745;28;20139;-76
2021/09/07 03:00:39;;;;;;;33.40;18.27;;;;;;;15.99;74.26;102073.84;5038739;28;20059;-77
2021/09/07 03:03:06;;;;;;;41.85;18.00;;;;;;;16.00;74.60;102066.66;5055124;28;20460;-76
2021/09/07 03:05:33;;;;;;;31.48;16.73;;;;;;;15.98;75.05;102066.81;5055468;28;20331;-77
2021/09/07 03:08:00;;;;;;;33.28;18.05;;;;;;;16.00;75.17;102066.66;5072438;28;20564;-76
2021/09/07 03:10:28;;;;;;;32.38;16.65;;;;;;;15.97;75.16;102064.28;5072664;28;20397;-76
2021/09/07 03:12:55;;;;;;;34.00;17.63;;;;;;;15.95;75.24;102067.13;5072176;28;20409;-76
2021/09/07 03:15:23;;;;;;;32.80;17.48;;;;;;;15.90;74.97;102062.25;5053313;28;20121;-76
2021/09/07 03:17:51;;;;;;;36.78;18.05;;;;;;;15.70;75.93;102068.78;5072333;28;20068;-77
2021/09/07 03:20:19;;;;;;;37.97;17.58;;;;;;;15.78;75.47;102074.19;5072600;28;20048;-77
2021/09/07 03:22:46;;;;;;;29.98;17.42;;;;;;;15.79;75.73;102061.66;5072696;28;20037;-76
2021/09/07 03:25:13;;;;;;;34.22;17.90;;;;;;;15.83;75.84;102068.38;5038383;28;20040;-77
2021/09/07 03:27:40;;;;;;;30.33;17.38;;;;;;;15.81;75.50;102070.34;5054456;28;20123;-76
2021/09/07 03:30:08;;;;;;;32.60;16.50;;;;;;;15.84;75.29;102068.22;5072161;28;20044;-76
2021/09/07 03:32:35;;;;;;;34.78;16.77;;;;;;;15.84;75.64;102062.03;5072704;28;20409;-77
2021/09/07 03:35:04;;;;;;;32.20;17.42;;;;;;;15.82;76.05;102064.03;5054863;28;20036;-76
2021/09/07 03:37:33;;;;;;;32.22;17.10;;;;;;;15.82;76.21;102064.03;5054595;28;20140;-76
2021/09/07 03:40:00;;;;;;;29.55;16.80;;;;;;;15.79;76.31;102056.31;5071839;28;20078;-76
2021/09/07 03:42:28;;;;;;;35.50;17.75;;;;;;;15.82;76.39;102061.34;5053034;28;20041;-76
2021/09/07 03:44:56;;;;;;;32.38;17.08;;;;;;;15.87;76.08;102062.56;5071979;28;20070;-77
2021/09/07 03:47:23;;;;;;;30.73;17.05;;;;;;;15.88;76.38;102061.56;5072315;28;20052;-77
2021/09/07 03:49:51;;;;;;;28.08;16.00;;;;;;;15.94;75.87;102068.13;5054820;28;20040;-76
2021/09/07 03:52:18;;;;;;;39.70;18.17;;;;;;;15.96;74.75;102070.66;5037882;28;20131;-76
2021/09/07 03:54:46;;;;;;;41.63;18.40;;;;;;;15.95;75.16;102067.13;5063727;28;20057;-76
2021/09/07 03:57:13;;;;;;;31.08;16.98;;;;;;;15.86;75.87;102071.59;5072131;28;20074;-76
2021/09/07 03:59:41;;;;;;;34.63;18.20;;;;;;;15.74;76.45;102060.28;5071857;28;20413;-77
2021/09/07 04:02:08;;;;;;;33.42;17.15;;;;;;;15.81;76.32;102079.25;5054758;28;20044;-77
2021/09/07 04:04:34;;;;;;;30.65;17.58;;;;;;;15.94;76.08;102081.50;5070182;28;20045;-77
2021/09/07 04:07:02;;;;;;;36.33;17.23;;;;;;;16.01;75.67;102076.34;5052694;28;20442;-76
2021/09/07 04:09:29;;;;;;;33.88;17.98;;;;;;;16.03;75.52;102077.88;5072866;28;20047;-77
2021/09/07 04:11:56;;;;;;;40.85;18.67;;;;;;;16.09;75.13;102074.56;5071720;28;20065;-76
2021/09/07 04:14:24;;;;;;;32.13;17.98;;;;;;;16.18;75.18;102074.63;5059614;28;20048;-76
2021/09/07 04:16:51;;;;;;;31.35;17.77;;;;;;;16.18;75.20;102074.63;5072245;28;20047;-77
2021/09/07 04:19:18;;;;;;;34.28;17.52;;;;;;;16.19;75.16;102068.25;5072060;28;20068;-77
2021/09/07 04:21:46;;;;;;;34.00;18.23;;;;;;;16.23;75.24;102065.13;5071913;28;20048;-77
2021/09/07 04:24:13;;;;;;;33.40;16.85;;;;;;;16.24;75.44;102057.91;5054452;28;20394;-77
2021/09/07 04:26:40;;;;;;;30.63;17.63;;;;;;;16.22;75.30;102065.28;5054173;28;20378;-77
2021/09/07 04:29:07;;;;;;;32.63;17.35;;;;;;;16.26;74.72;102070.16;5071652;28;20392;-76
2021/09/07 04:31:34;;;;;;;36.60;17.85;;;;;;;16.31;74.40;102064.31;5071961;28;20044;-77
2021/09/07 04:34:02;;;;;;;37.03;17.45;;;;;;;16.34;74.37;102065.84;5071627;28;20047;-76
2021/09/07 04:36:29;;;;;;;31.33;17.42;;;;;;;16.36;74.38;102070.03;5054330;28;20036;-76
2021/09/07 04:38:56;;;;;;;32.00;18.33;;;;;;;16.35;74.25;102076.38;5071569;28;20604;-76
2021/09/07 04:41:22;;;;;;;31.75;17.33;;;;;;;16.37;74.02;102071.72;5073173;28;20049;-77
2021/09/07 04:43:51;;;;;;;35.25;17.30;;;;;;;16.41;73.83;102067.72;5075289;28;20048;-76
2021/09/07 04:46:18;;;;;;;39.20;18.58;;;;;;;16.44;73.76;102077.25;5057557;28;20571;-76
2021/09/07 04:48:48;;;;;;;37.40;18.25;;;;;;;16.42;73.12;102068.56;5074910;28;20037;-77
2021/09/07 04:51:14;;;;;;;38.20;18.38;;;;;;;16.47;72.43;102076.94;5058127;28;20478;-76
2021/09/07 04:53:41;;;;;;;36.33;18.27;;;;;;;16.46;72.59;102078.81;5075431;28;20044;-76
2021/09/07 04:56:08;;;;;;;37.30;18.17;;;;;;;16.50;72.64;102071.28;5057169;28;20039;-76
2021/09/07 04:58:35;;;;;;;35.28;18.55;;;;;;;16.50;72.86;102068.59;5074616;28;20048;-77
2021/09/07 05:01:01;;;;;;;33.00;18.20;;;;;;;16.53;72.76;102072.78;5074841;28;20141;-76
2021/09/07 05:03:28;;;;;;;33.53;18.00;;;;;;;16.53;72.99;102068.25;5075146;28;20041;-76
2021/09/07 05:05:57;;;;;;;34.90;18.85;;;;;;;16.47;72.76;102074.28;5056987;28;20041;-76
2021/09/07 05:08:24;;;;;;;31.75;18.48;;;;;;;16.50;72.87;102082.00;5057077;28;20041;-76
2021/09/07 05:10:51;;;;;;;35.13;19.38;;;;;;;16.56;72.92;102080.50;5074771;28;20037;-77
2021/09/07 05:13:18;;;;;;;35.78;19.25;;;;;;;16.58;72.78;102079.34;5056909;28;20040;-77
2021/09/07 05:15:44;;;;;;;42.67;19.88;;;;;;;16.57;73.01;102083.03;5039834;28;20040;-77
2021/09/07 05:18:12;;;;;;;37.40;20.13;;;;;;;16.59;72.78;102085.53;5055316;28;20127;-76
2021/09/07 05:20:38;;;;;;;41.35;20.55;;;;;;;16.56;72.49;102075.16;5057320;28;20150;-77
2021/09/07 05:23:05;;;;;;;40.28;20.90;;;;;;;16.60;72.36;102073.81;5040047;28;20049;-76
2021/09/07 05:25:32;;;;;;;37.72;20.95;;;;;;;16.65;72.47;102076.88;5040190;28;20059;-76
2021/09/07 05:27:58;;;;;;;45.70;21.65;;;;;;;16.64;72.27;102072.50;5056750;28;20124;-77
2021/09/07 05:30:26;;;;;;;40.55;21.80;;;;;;;16.64;72.27;102080.53;5056029;28;20064;-77
2021/09/07 05:32:52;;;;;;;44.15;21.52;;;;;;;16.58;72.46;102081.19;5074642;28;20049;-76
2021/09/07 05:35:19;;;;;;;42.90;21.77;;;;;;;16.61;72.44;102087.06;5040087;28;20044;-76
2021/09/07 05:37:46;;;;;;;44.50;22.42;;;;;;;16.65;72.36;102090.25;5056426;28;20063;-76
2021/09/07 05:40:14;;;;;;;44.10;23.25;;;;;;;16.58;72.87;102084.69;5039734;28;20040;-76
2021/09/07 05:42:43;;;;;;;44.55;23.00;;;;;;;16.67;72.64;102088.25;5037966;28;20049;-77
2021/09/07 05:45:12;;;;;;;42.50;22.42;;;;;;;16.67;72.20;102089.09;5055570;28;20131;-77
2021/09/07 05:47:39;;;;;;;45.42;24.00;;;;;;;16.77;72.23;102096.16;5039332;28;20075;-76
2021/09/07 05:50:07;;;;;;;41.70;23.05;;;;;;;16.86;71.42;102087.16;5056083;28;20176;-76
2021/09/07 05:52:34;;;;;;;41.67;22.95;;;;;;;16.92;71.44;102080.31;5073682;28;20098;-76
2021/09/07 05:55:01;;;;;;;46.38;22.38;;;;;;;16.94;71.76;102091.75;5074016;28;20044;-77
2021/09/07 05:57:28;;;;;;;42.28;22.75;;;;;;;16.88;71.97;102094.06;5073186;28;20492;-76
2021/09/07 05:59:55;;;;;;;41.47;22.13;;;;;;;16.92;71.78;102093.72;5055815;28;20499;-76
2021/09/07 06:02:22;;;;;;;42.75;22.75;;;;;;;16.93;71.43;102093.56;5073832;28;20036;-77
2021/09/07 06:04:49;;;;;;;43.30;22.75;;;;;;;16.91;71.43;102095.56;5073941;28;20047;-76
2021/09/07 06:07:17;;;;;;;40.20;22.55;;;;;;;16.93;71.21;102098.09;5035640;28;20098;-76
2021/09/07 06:09:44;;;;;;;41.40;23.05;;;;;;;16.91;71.61;102100.91;5056238;28;20055;-76
2021/09/07 06:12:11;;;;;;;48.80;23.15;;;;;;;16.94;71.33;102100.59;5055066;28;20086;-77
2021/09/07 06:14:38;;;;;;;43.10;22.75;;;;;;;17.02;71.25;102103.28;5053426;28;20124;-77
2021/09/07 06:17:07;;;;;;;43.13;22.45;;;;;;;17.05;71.34;102112.88;5053301;28;20045;-77
2021/09/07 06:19:34;;;;;;;42.08;22.70;;;;;;;17.07;71.20;102103.66;5034120;28;20067;-76
2021/09/07 06:22:02;;;;;;;46.05;23.20;;;;;;;17.14;70.42;102105.69;5053640;28;20453;-76
2021/09/07 06:24:29;;;;;;;42.95;23.60;;;;;;;17.19;70.35;102098.81;5053575;28;20129;-76
2021/09/07 06:26:56;;;;;;;41.38;22.63;;;;;;;17.13;70.31;102109.38;5053428;28;20037;-76
2021/09/07 06:29:23;;;;;;;47.58;23.98;;;;;;;17.18;71.11;102107.88;5032749;28;20048;-76
2021/09/07 06:31:51;;;;;;;41.20;23.15;;;;;;;17.06;71.57;102099.31;5052118;28;20053;-77
2021/09/07 06:34:24;;;;;;;45.47;22.73;;;;;;;17.10;71.40;102101.63;5035703;28;20048;-77
2021/09/07 06:36:52;;;;;;;40.63;22.75;;;;;;;17.20;71.53;102103.16;5051835;28;20087;-77
2021/09/07 06:39:20;;;;;;;44.67;22.40;;;;;;;17.21;71.54;102098.66;5050767;28;20048;-77
2021/09/07 06:41:46;;;;;;;47.38;23.20;;;;;;;17.24;71.03;102101.00;5053342;28;20059;-76
2021/09/07 06:44:13;;;;;;;47.90;25.35;;;;;;;17.28;70.89;102094.28;5051155;28;20044;-76
2021/09/07 06:46:40;;;;;;;49.20;24.83;;;;;;;17.26;70.79;102102.53;5051020;28;20055;-76
2021/09/07 06:49:07;;;;;;;40.13;23.80;;;;;;;17.16;71.17;102095.63;5051654;28;20041;-76
2021/09/07 06:51:34;;;;;;;46.10;23.27;;;;;;;17.31;71.03;102104.69;5032744;28;20501;-76
2021/09/07 06:54:00;;;;;;;46.08;23.30;;;;;;;17.36;71.08;102110.41;5051893;28;20044;-76
2021/09/07 06:56:27;;;;;;;53.78;24.90;;;;;;;17.41;71.28;102102.72;5052803;28;20045;-76
2021/09/07 06:58:54;;;;;;;41.13;23.70;;;;;;;17.48;71.23;102102.88;5052675;28;20045;-76
2021/09/07 07:01:21;;;;;;;39.50;23.45;;;;;;;17.49;71.40;102107.25;5052876;28;20405;-76
2021/09/07 07:03:48;;;;;;;43.03;22.90;;;;;;;17.52;70.84;102111.41;5051152;28;20103;-76
2021/09/07 07:06:14;;;;;;;46.28;24.38;;;;;;;17.58;70.34;102118.81;5051068;28;20037;-76
2021/09/07 07:08:41;;;;;;;48.05;24.40;;;;;;;17.65;70.35;102119.81;5034808;28;20041;-76
2021/09/07 07:11:08;;;;;;;45.38;24.58;;;;;;;17.72;70.20;102118.16;5035155;28;20047;-76
2021/09/07 07:13:35;;;;;;;43.28;24.58;;;;;;;17.96;69.23;102120.00;5052234;28;20501;-76
2021/09/07 07:16:02;;;;;;;42.95;24.10;;;;;;;17.87;69.69;102133.63;5050419;28;20125;-75
2021/09/07 07:18:28;;;;;;;48.35;26.92;;;;;;;17.78;69.52;102133.56;5052519;28;20076;-76
2021/09/07 07:20:55;;;;;;;47.95;27.95;;;;;;;17.94;69.86;102127.41;5049068;28;20533;-76
2021/09/07 07:23:22;;;;;;;51.85;27.55;;;;;;;18.06;69.39;102121.69;5052392;28;20041;-76
2021/09/07 07:25:48;;;;;;;49.00;25.85;;;;;;;18.07;69.38;102124.19;5049665;28;20041;-76
2021/09/07 07:28:15;;;;;;;47.28;25.45;;;;;;;18.05;69.28;102125.38;5043627;28;20052;-76
2021/09/07 07:30:42;;;;;;;46.67;26.65;;;;;;;18.12;69.26;102131.72;5063188;28;20413;-76
2021/09/07 07:33:09;;;;;;;45.33;25.77;;;;;;;18.28;68.65;102134.41;5004450;28;20055;-76
2021/09/07 07:35:36;;;;;;;56.88;26.63;;;;;;;18.12;68.25;102140.63;5041584;28;20101;-72
2021/09/07 07:38:03;;;;;;;50.00;25.85;;;;;;;18.14;68.51;102137.78;5039956;28;20059;-72
2021/09/07 07:40:30;;;;;;;44.38;24.70;;;;;;;18.20;68.56;102143.28;5042809;28;20040;-72
2021/09/07 07:42:57;;;;;;;48.47;24.60;;;;;;;18.29;68.65;102146.81;5036414;28;20045;-72
2021/09/07 07:45:23;;;;;;;41.50;24.23;;;;;;;18.45;67.51;102145.13;5030414;28;20065;-71
2021/09/07 07:47:50;;;;;;;45.58;25.90;;;;;;;18.50;67.63;102151.66;5017170;28;20069;-72
2021/09/07 07:50:17;;;;;;;41.55;23.88;;;;;;;18.43;67.45;102142.59;5055202;28;20552;-72
2021/09/07 07:52:44;;;;;;;44.92;24.70;;;;;;;18.61;66.60;102153.13;5019610;28;20048;-72
2021/09/07 07:55:11;;;;;;;50.03;24.70;;;;;;;18.52;67.46;102144.25;5032369;28;20071;-72
2021/09/07 07:57:37;;;;;;;47.60;24.55;;;;;;;18.50;67.05;102146.28;5016698;28;20508;-72
2021/09/07 08:00:05;;;;;;;49.10;24.83;;;;;;;18.59;67.65;102142.53;5031467;28;20047;-71
2021/09/07 08:02:32;;;;;;;48.78;25.25;;;;;;;18.75;67.16;102143.47;5061407;28;20071;-71
2021/09/07 08:04:59;;;;;;;44.70;24.27;;;;;;;18.82;67.24;102140.97;5068952;28;20036;-71
2021/09/07 08:07:25;;;;;;;40.95;24.75;;;;;;;18.82;65.73;102146.34;5045387;28;20140;-72
2021/09/07 08:09:52;;;;;;;51.03;24.73;;;;;;;18.82;65.90;102146.34;5022529;28;20570;-73
2021/09/07 08:12:19;;;;;;;49.05;23.70;;;;;;;18.95;66.02;102152.81;5040384;28;20042;-72
2021/09/07 08:14:46;;;;;;;41.65;24.10;;;;;;;19.03;65.67;102153.81;5045376;28;20045;-72
2021/09/07 08:17:14;;;;;;;44.20;24.38;;;;;;;19.06;65.49;102148.09;5053343;28;20048;-73
2021/09/07 08:19:41;;;;;;;45.85;24.15;;;;;;;19.16;65.26;102154.91;5005487;28;20096;-72
2021/09/07 08:22:10;;;;;;;41.10;23.95;;;;;;;19.25;65.17;102155.72;5046195;28;20040;-73
2021/09/07 08:24:37;;;;;;;48.47;24.42;;;;;;;19.30;64.05;102149.78;5035785;28;20044;-73
2021/09/07 08:27:05;;;;;;;47.25;24.05;;;;;;;19.46;63.46;102159.63;5044022;28;20530;-73
2021/09/07 08:29:32;;;;;;;43.25;24.05;;;;;;;19.49;64.13;102156.56;5030289;28;20072;-72
2021/09/07 08:31:59;;;;;;;41.65;24.50;;;;;;;19.32;63.80;102151.31;5064885;28;20080;-73
2021/09/07 08:34:26;;;;;;;50.70;26.05;;;;;;;19.38;63.65;102160.50;5050279;28;20382;-72
2021/09/07 08:36:53;;;;;;;42.28;24.90;;;;;;;19.54;62.25;102155.03;5052459;28;20041;-71
2021/09/07 08:39:20;;;;;;;43.45;23.90;;;;;;;19.58;63.43;102165.44;5064262;28;20045;-72
2021/09/07 08:41:47;;;;;;;50.25;25.63;;;;;;;19.52;63.35;102154.38;5056742;28;20054;-72
2021/09/07 08:44:17;;;;;;;65.88;30.23;;;;;;;19.62;62.79;102151.41;5030550;28;20068;-72
2021/09/07 08:46:44;;;;;;;49.05;28.88;;;;;;;19.74;63.75;102150.03;5036833;28;20045;-72
2021/09/07 08:49:13;;;;;;;49.33;24.98;;;;;;;19.89;62.26;102149.22;5054742;28;20048;-72
2021/09/07 08:51:41;;;;;;;46.75;23.90;;;;;;;19.86;62.54;102150.41;5022931;28;20054;-72
2021/09/07 08:54:08;;;;;;;46.03;24.95;;;;;;;19.91;62.13;102150.72;5056089;28;20043;-71
2021/09/07 08:56:35;;;;;;;46.42;23.02;;;;;;;20.07;61.04;102149.72;5068024;28;20062;-72
2021/09/07 08:59:01;;;;;;;44.97;23.08;;;;;;;20.19;61.90;102143.88;5061883;28;20441;-72
2021/09/07 09:01:38;;;;;;;43.78;22.63;;;;;;;20.31;61.63;102147.81;5070111;28;20070;-72
2021/09/07 09:04:05;;;;;;;42.08;23.08;;;;;;;20.52;62.49;102155.19;5042668;28;20043;-72
2021/09/07 09:06:32;;;;;;;42.35;22.98;;;;;;;20.66;60.58;102148.94;5064231;28;20037;-71
2021/09/07 09:09:07;;;;;;;42.88;23.38;;;;;;;20.77;59.65;102153.03;5068417;28;20044;-72
2021/09/07 09:11:53;;;;;;;45.10;24.05;;;;;;;21.04;57.66;102145.28;5057296;28;20103;-72
2021/09/07 09:14:37;;;;;;;47.15;24.10;;;;;;;21.39;55.40;102137.34;5065056;28;20036;-72
2021/09/07 09:17:22;;;;;;;44.40;22.55;;;;;;;21.38;58.14;102139.22;5037990;28;20087;-72
2021/09/07 09:25:33;;;;;;;51.38;21.65;;;;;;;23.62;51.27;102142.84;5148202;27;20380;-72
2021/09/07 09:30:56;;;;;;;44.13;23.95;;;;;;;25.24;45.12;102134.97;5120711;27;20841;-74
2021/09/07 09:33:25;;;;;;;41.30;21.67;;;;;;;26.33;43.91;102132.81;5094844;28;20032;-72
2021/09/07 09:36:00;;;;;;;45.00;23.23;;;;;;;27.04;43.19;102132.41;5107100;28;20043;-72
2021/09/07 09:38:34;;;;;;;35.67;20.55;;;;;;;27.53;40.51;102130.44;5113791;28;20377;-72
2021/09/07 09:41:03;;;;;;;41.58;20.70;;;;;;;28.26;38.36;102131.09;5120277;28;20063;-71
2021/09/07 09:43:43;;;;;;;39.22;21.00;;;;;;;28.52;38.30;102122.38;5092625;28;20496;-72
2021/09/07 09:49:13;;;;;;;37.58;20.65;;;;;;;30.05;35.34;102125.34;5082838;28;20413;-71
2021/09/07 09:51:42;;;;;;;38.88;21.20;;;;;;;30.16;32.78;102118.97;5055279;28;20496;-70
2021/09/07 09:54:21;;;;;;;37.37;20.57;;;;;;;29.97;33.94;102114.88;5049099;28;20048;-73
2021/09/07 09:56:49;;;;;;;34.25;18.50;;;;;;;30.39;33.18;102108.88;5058100;28;20330;-72
2021/09/07 09:59:16;;;;;;;39.47;19.05;;;;;;;29.95;32.70;102117.03;5043820;28;20056;-72
2021/09/07 10:01:43;;;;;;;32.38;17.92;;;;;;;29.79;33.51;102108.59;5062973;28;20040;-72
2021/09/07 10:04:19;;;;;;;28.40;17.30;;;;;;;30.04;32.43;102099.09;5029708;28;20044;-73
2021/09/07 10:06:54;;;;;;;36.28;17.67;;;;;;;29.96;33.01;102103.09;5046581;28;20052;-72
2021/09/07 10:09:23;;;;;;;31.42;17.60;;;;;;;29.58;33.70;102103.84;5008509;28;20043;-72
2021/09/07 10:11:57;;;;;;;32.80;16.98;;;;;;;29.51;33.47;102100.44;5032480;28;20518;-72
2021/09/07 10:14:30;;;;;;;34.38;18.58;;;;;;;29.22;35.00;102095.91;5068044;28;20087;-73
2021/09/07 10:17:17;;;;;;;;;;;;;;;28.79;35.99;102094.53;5035960;28;20055;-70
2021/09/07 10:19:46;;;;;;;31.27;17.77;;;;;;;28.72;36.15;102091.13;5065012;28;19924;-72
2021/09/07 10:25:52;;;;;;;34.13;17.27;;;;;;;28.67;36.08;102082.81;5037829;28;20069;-72
2021/09/07 10:28:42;;;;;;;31.50;17.08;;;;;;;28.64;32.98;102077.88;5046141;28;20064;-72
2021/09/07 10:36:33;;;;;;;34.58;18.63;;;;;;;28.12;36.34;102075.94;5089263;27;20378;-71
2021/09/07 10:39:02;;;;;;;35.45;17.50;;;;;;;28.38;36.70;102071.03;5079298;28;20079;-70
2021/09/07 10:44:24;;;;;;;30.67;16.95;;;;;;;28.16;35.20;102071.69;5130439;27;20127;-71
2021/09/07 10:49:37;;;;;;;31.10;16.80;;;;;;;27.10;38.53;102064.22;5103195;27;20132;-71
2021/09/07 10:52:23;;;;;;;32.25;16.90;;;;;;;26.88;39.17;102065.81;5072102;28;20471;-71
2021/09/07 11:02:55;;;;;;;29.38;16.95;;;;;;;26.75;40.66;102051.34;5113819;27;20121;-71
2021/09/07 11:08:05;;;;;;;33.97;17.48;;;;;;;26.48;39.34;102050.00;5142513;27;20361;-71
2021/09/07 11:13:31;;;;;;;31.95;17.67;;;;;;;26.75;39.01;102045.06;5101848;27;21626;-71
2021/09/07 11:16:01;;;;;;;36.55;18.00;;;;;;;26.67;39.63;102038.06;5073721;28;20594;-71
2021/09/07 11:18:30;;;;;;;29.53;16.30;;;;;;;26.61;39.26;102038.97;5086682;28;20726;-71
2021/09/07 11:21:00;;;;;;;27.88;15.80;;;;;;;26.50;38.66;102037.81;5054498;28;20670;-71
2021/09/07 11:23:30;;;;;;;28.27;16.00;;;;;;;26.52;40.74;102032.16;5067141;28;20504;-71
2021/09/07 11:26:02;;;;;;;24.75;13.23;;;;;;;26.30;38.39;102037.25;5053365;28;20298;-71
2021/09/07 11:28:30;;;;;;;27.60;13.50;;;;;;;26.37;38.14;102025.22;5086367;28;20094;-71
2021/09/07 11:30:58;;;;;;;27.63;15.32;;;;;;;26.40;39.50;102032.13;5066895;28;20044;-71
2021/09/07 11:33:30;;;;;;;28.20;16.20;;;;;;;26.48;39.79;102034.50;5084081;28;20083;-71
2021/09/07 11:36:03;;;;;;;33.63;16.10;;;;;;;26.40;40.24;102032.94;5086372;28;20067;-71
2021/09/07 11:38:33;;;;;;;27.23;15.40;;;;;;;26.67;40.47;102026.31;5099217;28;20048;-71
2021/09/07 11:41:04;;;;;;;28.42;16.25;;;;;;;26.79;38.12;102030.75;5048733;28;20044;-70
2021/09/07 11:43:35;;;;;;;34.30;16.40;;;;;;;26.81;38.98;102025.94;5055337;28;20040;-71
2021/09/07 11:48:46;;;;;;;28.35;14.23;;;;;;;27.14;37.56;102023.75;5080728;27;20425;-72
2021/09/07 11:51:16;;;;;;;27.05;14.95;;;;;;;27.27;36.69;102025.44;5066391;28;20382;-71
2021/09/07 11:53:45;;;;;;;26.05;13.60;;;;;;;27.43;34.46;102018.47;5052152;28;20501;-71
2021/09/07 11:56:21;;;;;;;23.05;14.25;;;;;;;27.02;36.10;102025.63;5063665;28;20051;-71